sensor_id;sensor_type;location;lat;lon;timestamp;temperature;humidity
80540;DHT22;69869;48.036;15.780;2024-03-02T00:00:05;14.20;78.00
80540;DHT22;69869;48.036;15.780;2024-03-02T00:02:40;14.20;78.00
80540;DHT22;69869;48.036;15.780;2024-03-02T00:05:06;14.20;78.00
80540;DHT22;69869;48.036;15.780;2024-03-02T00:07:33;14.20;78.00
80540;DHT22;69869;48.036;15.780;2024-03-02T00:09:59;14.20;78.00
80540;DHT22;69869;48.036;15.780;2024-03-02T00:12:25;14.20;78.10
80540;DHT22;69869;48.036;15.780;2024-03-02T00:14:51;14.20;78.10
80540;DHT22;69869;48.036;15.780;2024-03-02T00:17:24;14.20;78.00
80540;DHT22;69869;48.036;15.780;2024-03-02T00:19:51;14.20;78.00
80540;DHT22;69869;48.036;15.780;2024-03-02T00:22:18;14.20;78.00
80540;DHT22;69869;48.036;15.780;2024-03-02T00:24:43;14.20;78.00
80540;DHT22;69869;48.036;15.780;2024-03-02T00:27:13;14.20;78.00
80540;DHT22;69869;48.036;15.780;2024-03-02T00:29:40;14.30;78.20
80540;DHT22;69869;48.036;15.780;2024-03-02T00:32:13;14.20;78.00
80540;DHT22;69869;48.036;15.780;2024-03-02T00:34:41;14.20;78.00
80540;DHT22;69869;48.036;15.780;2024-03-02T00:37:07;14.20;78.00
80540;DHT22;69869;48.036;15.780;2024-03-02T00:39:32;14.20;77.90
80540;DHT22;69869;48.036;15.780;2024-03-02T00:41:58;14.20;78.70
80540;DHT22;69869;48.036;15.780;2024-03-02T00:44:25;14.20;78.10
80540;DHT22;69869;48.036;15.780;2024-03-02T00:46:59;14.20;78.70
80540;DHT22;69869;48.036;15.780;2024-03-02T00:49:25;14.20;78.00
80540;DHT22;69869;48.036;15.780;2024-03-02T00:51:53;14.20;78.00
80540;DHT22;69869;48.036;15.780;2024-03-02T00:54:24;14.20;78.10
80540;DHT22;69869;48.036;15.780;2024-03-02T00:56:52;14.20;78.00
80540;DHT22;69869;48.036;15.780;2024-03-02T00:59:20;14.20;78.00
80540;DHT22;69869;48.036;15.780;2024-03-02T01:01:47;14.20;78.10
80540;DHT22;69869;48.036;15.780;2024-03-02T01:04:13;14.20;78.00
80540;DHT22;69869;48.036;15.780;2024-03-02T01:06:39;14.20;78.10
80540;DHT22;69869;48.036;15.780;2024-03-02T01:09:05;14.20;78.10
80540;DHT22;69869;48.036;15.780;2024-03-02T01:11:31;14.20;78.00
80540;DHT22;69869;48.036;15.780;2024-03-02T01:13:56;14.20;78.00
80540;DHT22;69869;48.036;15.780;2024-03-02T01:16:22;14.20;78.00
80540;DHT22;69869;48.036;15.780;2024-03-02T01:18:48;14.20;77.90
80540;DHT22;69869;48.036;15.780;2024-03-02T01:21:14;14.20;78.10
80540;DHT22;69869;48.036;15.780;2024-03-02T01:23:40;14.20;78.10
80540;DHT22;69869;48.036;15.780;2024-03-02T01:26:06;14.20;78.00
80540;DHT22;69869;48.036;15.780;2024-03-02T01:28:32;14.20;78.00
80540;DHT22;69869;48.036;15.780;2024-03-02T01:30:58;14.20;78.00
80540;DHT22;69869;48.036;15.780;2024-03-02T01:33:23;14.20;77.90
80540;DHT22;69869;48.036;15.780;2024-03-02T01:35:49;14.20;78.70
80540;DHT22;69869;48.036;15.780;2024-03-02T01:38:15;14.20;77.90
80540;DHT22;69869;48.036;15.780;2024-03-02T01:40:42;14.20;77.90
80540;DHT22;69869;48.036;15.780;2024-03-02T01:43:07;14.20;77.90
80540;DHT22;69869;48.036;15.780;2024-03-02T01:45:34;14.20;77.90
80540;DHT22;69869;48.036;15.780;2024-03-02T01:48:01;14.20;78.00
80540;DHT22;69869;48.036;15.780;2024-03-02T01:50:33;14.20;77.90
80540;DHT22;69869;48.036;15.780;2024-03-02T01:53:03;14.20;77.90
80540;DHT22;69869;48.036;15.780;2024-03-02T01:55:28;14.20;77.90
80540;DHT22;69869;48.036;15.780;2024-03-02T01:57:58;14.20;77.90
80540;DHT22;69869;48.036;15.780;2024-03-02T02:00:24;14.10;77.80
80540;DHT22;69869;48.036;15.780;2024-03-02T02:02:52;14.20;77.90
80540;DHT22;69869;48.036;15.780;2024-03-02T02:05:18;14.20;77.90
80540;DHT22;69869;48.036;15.780;2024-03-02T02:07:44;14.10;77.80
80540;DHT22;69869;48.036;15.780;2024-03-02T02:10:13;14.10;77.80
80540;DHT22;69869;48.036;15.780;2024-03-02T02:12:38;14.20;77.90
80540;DHT22;69869;48.036;15.780;2024-03-02T02:15:23;14.10;77.80
80540;DHT22;69869;48.036;15.780;2024-03-02T02:17:49;14.10;77.70
80540;DHT22;69869;48.036;15.780;2024-03-02T02:20:14;14.20;77.80
80540;DHT22;69869;48.036;15.780;2024-03-02T02:22:40;14.10;78.50
80540;DHT22;69869;48.036;15.780;2024-03-02T02:25:06;14.10;77.80
80540;DHT22;69869;48.036;15.780;2024-03-02T02:27:31;14.10;77.80
80540;DHT22;69869;48.036;15.780;2024-03-02T02:29:57;14.20;77.80
80540;DHT22;69869;48.036;15.780;2024-03-02T02:32:23;14.10;77.80
80540;DHT22;69869;48.036;15.780;2024-03-02T02:34:52;14.20;77.90
80540;DHT22;69869;48.036;15.780;2024-03-02T02:37:18;14.10;77.80
80540;DHT22;69869;48.036;15.780;2024-03-02T02:39:43;14.20;77.90
80540;DHT22;69869;48.036;15.780;2024-03-02T02:42:09;14.20;77.80
80540;DHT22;69869;48.036;15.780;2024-03-02T02:44:35;14.10;77.80
80540;DHT22;69869;48.036;15.780;2024-03-02T02:47:00;14.20;77.90
80540;DHT22;69869;48.036;15.780;2024-03-02T02:49:26;14.20;77.90
80540;DHT22;69869;48.036;15.780;2024-03-02T02:51:52;14.10;77.80
80540;DHT22;69869;48.036;15.780;2024-03-02T02:54:17;14.10;77.80
80540;DHT22;69869;48.036;15.780;2024-03-02T02:56:43;14.20;77.80
80540;DHT22;69869;48.036;15.780;2024-03-02T02:59:09;14.10;77.80
80540;DHT22;69869;48.036;15.780;2024-03-02T03:01:34;14.10;77.70
80540;DHT22;69869;48.036;15.780;2024-03-02T03:04:00;14.20;77.80
80540;DHT22;69869;48.036;15.780;2024-03-02T03:06:25;14.10;77.70
80540;DHT22;69869;48.036;15.780;2024-03-02T03:08:51;14.10;77.80
80540;DHT22;69869;48.036;15.780;2024-03-02T03:11:17;14.10;77.80
80540;DHT22;69869;48.036;15.780;2024-03-02T03:13:42;14.10;77.80
80540;DHT22;69869;48.036;15.780;2024-03-02T03:16:08;14.10;77.70
80540;DHT22;69869;48.036;15.780;2024-03-02T03:18:33;14.20;77.80
80540;DHT22;69869;48.036;15.780;2024-03-02T03:20:59;14.10;77.70
80540;DHT22;69869;48.036;15.780;2024-03-02T03:23:25;14.20;77.80
80540;DHT22;69869;48.036;15.780;2024-03-02T03:25:51;14.10;77.60
80540;DHT22;69869;48.036;15.780;2024-03-02T03:28:17;14.20;77.80
80540;DHT22;69869;48.036;15.780;2024-03-02T03:30:43;14.10;77.70
80540;DHT22;69869;48.036;15.780;2024-03-02T03:33:08;14.20;77.90
80540;DHT22;69869;48.036;15.780;2024-03-02T03:35:34;14.10;77.70
80540;DHT22;69869;48.036;15.780;2024-03-02T03:38:00;14.10;77.70
80540;DHT22;69869;48.036;15.780;2024-03-02T03:40:26;14.20;77.80
80540;DHT22;69869;48.036;15.780;2024-03-02T03:42:51;14.10;77.60
80540;DHT22;69869;48.036;15.780;2024-03-02T03:45:17;14.10;77.80
80540;DHT22;69869;48.036;15.780;2024-03-02T03:47:43;14.10;77.70
80540;DHT22;69869;48.036;15.780;2024-03-02T03:50:09;14.20;77.80
80540;DHT22;69869;48.036;15.780;2024-03-02T03:52:35;14.10;77.80
80540;DHT22;69869;48.036;15.780;2024-03-02T03:55:00;14.10;77.80
80540;DHT22;69869;48.036;15.780;2024-03-02T03:57:26;14.10;77.70
80540;DHT22;69869;48.036;15.780;2024-03-02T03:59:52;14.10;77.70
80540;DHT22;69869;48.036;15.780;2024-03-02T04:02:19;14.10;77.60
80540;DHT22;69869;48.036;15.780;2024-03-02T04:04:44;14.10;78.20
80540;DHT22;69869;48.036;15.780;2024-03-02T04:07:10;14.10;77.70
80540;DHT22;69869;48.036;15.780;2024-03-02T04:09:36;14.10;77.70
80540;DHT22;69869;48.036;15.780;2024-03-02T04:12:01;14.10;77.70
80540;DHT22;69869;48.036;15.780;2024-03-02T04:14:27;14.10;77.70
80540;DHT22;69869;48.036;15.780;2024-03-02T04:16:53;14.10;77.70
80540;DHT22;69869;48.036;15.780;2024-03-02T04:19:18;14.10;77.60
80540;DHT22;69869;48.036;15.780;2024-03-02T04:21:44;14.10;77.60
80540;DHT22;69869;48.036;15.780;2024-03-02T04:24:10;14.10;77.70
80540;DHT22;69869;48.036;15.780;2024-03-02T04:26:35;14.10;77.60
80540;DHT22;69869;48.036;15.780;2024-03-02T04:29:01;14.10;77.60
80540;DHT22;69869;48.036;15.780;2024-03-02T04:31:27;14.10;77.60
80540;DHT22;69869;48.036;15.780;2024-03-02T04:33:52;14.10;77.70
80540;DHT22;69869;48.036;15.780;2024-03-02T04:36:19;14.10;77.70
80540;DHT22;69869;48.036;15.780;2024-03-02T04:38:45;14.10;77.60
80540;DHT22;69869;48.036;15.780;2024-03-02T04:41:10;14.10;77.70
80540;DHT22;69869;48.036;15.780;2024-03-02T04:43:36;14.10;77.60
80540;DHT22;69869;48.036;15.780;2024-03-02T04:46:02;14.10;77.50
80540;DHT22;69869;48.036;15.780;2024-03-02T04:48:27;14.10;77.60
80540;DHT22;69869;48.036;15.780;2024-03-02T04:50:53;14.10;77.60
80540;DHT22;69869;48.036;15.780;2024-03-02T04:53:19;14.10;77.50
80540;DHT22;69869;48.036;15.780;2024-03-02T04:55:44;14.10;77.60
80540;DHT22;69869;48.036;15.780;2024-03-02T04:58:19;14.10;77.60
80540;DHT22;69869;48.036;15.780;2024-03-02T05:00:46;14.10;77.50
80540;DHT22;69869;48.036;15.780;2024-03-02T05:03:12;14.10;77.50
80540;DHT22;69869;48.036;15.780;2024-03-02T05:05:38;14.10;77.60
80540;DHT22;69869;48.036;15.780;2024-03-02T05:08:04;14.10;77.50
80540;DHT22;69869;48.036;15.780;2024-03-02T05:10:30;14.10;77.60
80540;DHT22;69869;48.036;15.780;2024-03-02T05:12:55;14.10;77.70
80540;DHT22;69869;48.036;15.780;2024-03-02T05:15:25;14.10;77.50
80540;DHT22;69869;48.036;15.780;2024-03-02T05:17:51;14.10;77.40
80540;DHT22;69869;48.036;15.780;2024-03-02T05:20:17;14.10;77.60
80540;DHT22;69869;48.036;15.780;2024-03-02T05:22:43;14.10;77.40
80540;DHT22;69869;48.036;15.780;2024-03-02T05:25:09;14.10;77.50
80540;DHT22;69869;48.036;15.780;2024-03-02T05:27:37;14.10;77.50
80540;DHT22;69869;48.036;15.780;2024-03-02T05:30:03;14.10;77.60
80540;DHT22;69869;48.036;15.780;2024-03-02T05:32:31;14.10;77.50
80540;DHT22;69869;48.036;15.780;2024-03-02T05:34:57;14.10;77.60
80540;DHT22;69869;48.036;15.780;2024-03-02T05:37:23;14.10;77.50
80540;DHT22;69869;48.036;15.780;2024-03-02T05:39:48;14.10;77.50
80540;DHT22;69869;48.036;15.780;2024-03-02T05:42:14;14.10;77.40
80540;DHT22;69869;48.036;15.780;2024-03-02T05:44:40;14.10;77.30
80540;DHT22;69869;48.036;15.780;2024-03-02T05:47:05;14.10;77.40
80540;DHT22;69869;48.036;15.780;2024-03-02T05:49:34;14.10;77.40
80540;DHT22;69869;48.036;15.780;2024-03-02T05:52:00;14.10;77.50
80540;DHT22;69869;48.036;15.780;2024-03-02T05:54:25;14.10;77.40
80540;DHT22;69869;48.036;15.780;2024-03-02T05:56:51;14.10;77.40
80540;DHT22;69869;48.036;15.780;2024-03-02T05:59:16;14.10;77.50
80540;DHT22;69869;48.036;15.780;2024-03-02T06:01:43;14.10;77.40
80540;DHT22;69869;48.036;15.780;2024-03-02T06:04:10;14.10;78.00
80540;DHT22;69869;48.036;15.780;2024-03-02T06:06:39;14.10;77.40
80540;DHT22;69869;48.036;15.780;2024-03-02T06:09:05;14.10;77.40
80540;DHT22;69869;48.036;15.780;2024-03-02T06:11:42;14.10;77.40
80540;DHT22;69869;48.036;15.780;2024-03-02T06:14:08;14.10;77.40
80540;DHT22;69869;48.036;15.780;2024-03-02T06:16:34;14.10;77.40
80540;DHT22;69869;48.036;15.780;2024-03-02T06:19:00;14.10;77.30
80540;DHT22;69869;48.036;15.780;2024-03-02T06:21:27;14.10;77.30
80540;DHT22;69869;48.036;15.780;2024-03-02T06:23:52;14.10;77.20
80540;DHT22;69869;48.036;15.780;2024-03-02T06:26:18;14.10;77.20
80540;DHT22;69869;48.036;15.780;2024-03-02T06:28:45;14.10;78.00
80540;DHT22;69869;48.036;15.780;2024-03-02T06:31:10;14.10;77.30
80540;DHT22;69869;48.036;15.780;2024-03-02T06:33:36;14.10;77.40
80540;DHT22;69869;48.036;15.780;2024-03-02T06:36:03;14.10;77.30
80540;DHT22;69869;48.036;15.780;2024-03-02T06:38:28;14.10;77.30
80540;DHT22;69869;48.036;15.780;2024-03-02T06:40:54;14.10;77.30
80540;DHT22;69869;48.036;15.780;2024-03-02T06:43:22;14.10;77.20
80540;DHT22;69869;48.036;15.780;2024-03-02T06:45:51;14.10;77.30
80540;DHT22;69869;48.036;15.780;2024-03-02T06:48:18;14.10;77.20
80540;DHT22;69869;48.036;15.780;2024-03-02T06:50:47;14.10;77.20
80540;DHT22;69869;48.036;15.780;2024-03-02T06:53:16;14.10;77.30
80540;DHT22;69869;48.036;15.780;2024-03-02T06:55:46;14.10;77.20
80540;DHT22;69869;48.036;15.780;2024-03-02T06:58:14;14.10;77.30
80540;DHT22;69869;48.036;15.780;2024-03-02T07:00:42;14.10;77.20
80540;DHT22;69869;48.036;15.780;2024-03-02T07:03:08;14.10;77.20
80540;DHT22;69869;48.036;15.780;2024-03-02T07:05:33;14.10;77.20
80540;DHT22;69869;48.036;15.780;2024-03-02T07:07:59;14.10;77.20
80540;DHT22;69869;48.036;15.780;2024-03-02T07:10:26;14.10;77.30
80540;DHT22;69869;48.036;15.780;2024-03-02T07:12:52;14.10;77.40
80540;DHT22;69869;48.036;15.780;2024-03-02T07:15:17;14.10;77.40
80540;DHT22;69869;48.036;15.780;2024-03-02T07:17:52;14.10;77.40
80540;DHT22;69869;48.036;15.780;2024-03-02T07:20:18;14.10;77.50
80540;DHT22;69869;48.036;15.780;2024-03-02T07:22:44;14.10;77.40
80540;DHT22;69869;48.036;15.780;2024-03-02T07:25:09;14.10;77.50
80540;DHT22;69869;48.036;15.780;2024-03-02T07:27:35;14.10;77.40
80540;DHT22;69869;48.036;15.780;2024-03-02T07:30:02;14.10;77.40
80540;DHT22;69869;48.036;15.780;2024-03-02T07:32:28;14.10;77.50
80540;DHT22;69869;48.036;15.780;2024-03-02T07:34:53;14.10;77.50
80540;DHT22;69869;48.036;15.780;2024-03-02T07:37:19;14.10;77.60
80540;DHT22;69869;48.036;15.780;2024-03-02T07:39:45;14.10;77.60
80540;DHT22;69869;48.036;15.780;2024-03-02T07:42:11;14.10;77.60
80540;DHT22;69869;48.036;15.780;2024-03-02T07:44:37;14.10;77.60
80540;DHT22;69869;48.036;15.780;2024-03-02T07:47:03;14.10;77.60
80540;DHT22;69869;48.036;15.780;2024-03-02T07:49:29;14.10;77.70
80540;DHT22;69869;48.036;15.780;2024-03-02T07:51:54;14.10;77.70
80540;DHT22;69869;48.036;15.780;2024-03-02T07:54:20;14.10;77.60
80540;DHT22;69869;48.036;15.780;2024-03-02T07:56:46;14.10;77.80
80540;DHT22;69869;48.036;15.780;2024-03-02T07:59:13;14.10;77.80
80540;DHT22;69869;48.036;15.780;2024-03-02T08:01:38;14.10;77.70
80540;DHT22;69869;48.036;15.780;2024-03-02T08:04:04;14.10;77.70
80540;DHT22;69869;48.036;15.780;2024-03-02T08:06:30;14.10;77.70
80540;DHT22;69869;48.036;15.780;2024-03-02T08:08:57;14.10;77.60
80540;DHT22;69869;48.036;15.780;2024-03-02T08:11:23;14.10;77.70
80540;DHT22;69869;48.036;15.780;2024-03-02T08:13:49;14.10;77.70
80540;DHT22;69869;48.036;15.780;2024-03-02T08:16:18;14.10;77.70
80540;DHT22;69869;48.036;15.780;2024-03-02T08:18:47;14.10;77.70
80540;DHT22;69869;48.036;15.780;2024-03-02T08:21:13;14.10;77.80
80540;DHT22;69869;48.036;15.780;2024-03-02T08:23:40;14.10;77.80
80540;DHT22;69869;48.036;15.780;2024-03-02T08:26:08;14.10;77.80
80540;DHT22;69869;48.036;15.780;2024-03-02T08:28:34;14.10;77.70
80540;DHT22;69869;48.036;15.780;2024-03-02T08:31:00;14.10;77.80
80540;DHT22;69869;48.036;15.780;2024-03-02T08:33:25;14.10;77.70
80540;DHT22;69869;48.036;15.780;2024-03-02T08:35:51;14.10;77.80
80540;DHT22;69869;48.036;15.780;2024-03-02T08:38:17;14.10;77.70
80540;DHT22;69869;48.036;15.780;2024-03-02T08:40:44;14.10;77.80
80540;DHT22;69869;48.036;15.780;2024-03-02T08:43:09;14.10;77.80
80540;DHT22;69869;48.036;15.780;2024-03-02T08:45:35;14.10;77.80
80540;DHT22;69869;48.036;15.780;2024-03-02T08:48:01;14.10;77.80
80540;DHT22;69869;48.036;15.780;2024-03-02T08:50:27;14.10;77.80
80540;DHT22;69869;48.036;15.780;2024-03-02T08:52:52;14.10;77.80
80540;DHT22;69869;48.036;15.780;2024-03-02T08:55:18;14.10;77.90
80540;DHT22;69869;48.036;15.780;2024-03-02T08:57:43;14.10;77.80
80540;DHT22;69869;48.036;15.780;2024-03-02T09:00:09;14.10;77.80
80540;DHT22;69869;48.036;15.780;2024-03-02T09:02:35;14.10;77.90
80540;DHT22;69869;48.036;15.780;2024-03-02T09:05:01;14.10;77.90
80540;DHT22;69869;48.036;15.780;2024-03-02T09:07:27;14.10;77.80
80540;DHT22;69869;48.036;15.780;2024-03-02T09:09:52;14.10;77.90
80540;DHT22;69869;48.036;15.780;2024-03-02T09:12:18;14.10;78.00
80540;DHT22;69869;48.036;15.780;2024-03-02T09:14:44;14.10;77.90
80540;DHT22;69869;48.036;15.780;2024-03-02T09:17:11;14.10;77.90
80540;DHT22;69869;48.036;15.780;2024-03-02T09:19:37;14.10;78.00
80540;DHT22;69869;48.036;15.780;2024-03-02T09:22:04;14.10;78.00
80540;DHT22;69869;48.036;15.780;2024-03-02T09:24:34;14.10;78.00
80540;DHT22;69869;48.036;15.780;2024-03-02T09:27:00;14.10;78.00
80540;DHT22;69869;48.036;15.780;2024-03-02T09:29:26;14.10;78.00
80540;DHT22;69869;48.036;15.780;2024-03-02T09:31:51;14.10;78.00
80540;DHT22;69869;48.036;15.780;2024-03-02T09:34:17;14.10;78.00
80540;DHT22;69869;48.036;15.780;2024-03-02T09:36:43;14.10;78.10
80540;DHT22;69869;48.036;15.780;2024-03-02T09:39:09;14.10;78.00
80540;DHT22;69869;48.036;15.780;2024-03-02T09:41:36;14.10;78.10
80540;DHT22;69869;48.036;15.780;2024-03-02T09:44:02;14.10;78.20
80540;DHT22;69869;48.036;15.780;2024-03-02T09:46:28;14.10;78.20
80540;DHT22;69869;48.036;15.780;2024-03-02T09:48:54;14.10;78.20
80540;DHT22;69869;48.036;15.780;2024-03-02T09:51:20;14.10;78.10
80540;DHT22;69869;48.036;15.780;2024-03-02T09:53:47;14.10;78.20
80540;DHT22;69869;48.036;15.780;2024-03-02T09:56:13;14.10;78.20
80540;DHT22;69869;48.036;15.780;2024-03-02T09:58:39;14.10;78.20
80540;DHT22;69869;48.036;15.780;2024-03-02T10:01:08;14.10;78.20
80540;DHT22;69869;48.036;15.780;2024-03-02T10:03:36;14.10;78.30
80540;DHT22;69869;48.036;15.780;2024-03-02T10:06:22;14.10;78.30
80540;DHT22;69869;48.036;15.780;2024-03-02T10:08:48;14.10;78.30
80540;DHT22;69869;48.036;15.780;2024-03-02T10:14:13;14.10;78.30
80540;DHT22;69869;48.036;15.780;2024-03-02T10:19:21;14.10;78.30
80540;DHT22;69869;48.036;15.780;2024-03-02T10:21:48;14.10;78.30
80540;DHT22;69869;48.036;15.780;2024-03-02T10:24:15;14.10;78.30
80540;DHT22;69869;48.036;15.780;2024-03-02T10:26:41;14.10;78.40
80540;DHT22;69869;48.036;15.780;2024-03-02T10:29:08;14.10;78.40
80540;DHT22;69869;48.036;15.780;2024-03-02T10:31:37;14.10;78.40
80540;DHT22;69869;48.036;15.780;2024-03-02T10:34:03;14.10;78.40
80540;DHT22;69869;48.036;15.780;2024-03-02T10:36:29;14.10;78.40
80540;DHT22;69869;48.036;15.780;2024-03-02T10:38:56;14.10;78.40
80540;DHT22;69869;48.036;15.780;2024-03-02T10:41:24;14.10;78.40
80540;DHT22;69869;48.036;15.780;2024-03-02T10:43:55;14.10;78.50
80540;DHT22;69869;48.036;15.780;2024-03-02T10:46:28;14.10;78.40
80540;DHT22;69869;48.036;15.780;2024-03-02T10:48:58;14.10;78.50
80540;DHT22;69869;48.036;15.780;2024-03-02T10:51:28;14.10;78.50
80540;DHT22;69869;48.036;15.780;2024-03-02T10:53:57;14.10;78.40
80540;DHT22;69869;48.036;15.780;2024-03-02T10:56:29;14.10;78.50
80540;DHT22;69869;48.036;15.780;2024-03-02T10:59:36;14.20;78.60
80540;DHT22;69869;48.036;15.780;2024-03-02T11:02:05;14.10;78.50
80540;DHT22;69869;48.036;15.780;2024-03-02T11:04:34;14.10;78.50
80540;DHT22;69869;48.036;15.780;2024-03-02T11:07:04;14.10;78.50
80540;DHT22;69869;48.036;15.780;2024-03-02T11:09:33;14.10;78.50
80540;DHT22;69869;48.036;15.780;2024-03-02T11:12:23;14.10;78.50
80540;DHT22;69869;48.036;15.780;2024-03-02T11:14:51;14.10;78.50
80540;DHT22;69869;48.036;15.780;2024-03-02T11:17:18;14.10;78.60
80540;DHT22;69869;48.036;15.780;2024-03-02T11:19:44;14.10;78.60
80540;DHT22;69869;48.036;15.780;2024-03-02T11:22:14;14.20;78.70
80540;DHT22;69869;48.036;15.780;2024-03-02T11:24:51;14.10;78.60
80540;DHT22;69869;48.036;15.780;2024-03-02T11:33:04;14.10;78.60
80540;DHT22;69869;48.036;15.780;2024-03-02T11:35:36;14.10;78.60
80540;DHT22;69869;48.036;15.780;2024-03-02T11:38:03;14.10;78.70
80540;DHT22;69869;48.036;15.780;2024-03-02T11:40:29;14.10;78.70
80540;DHT22;69869;48.036;15.780;2024-03-02T11:42:56;14.10;78.70
80540;DHT22;69869;48.036;15.780;2024-03-02T11:45:26;14.10;78.70
80540;DHT22;69869;48.036;15.780;2024-03-02T11:47:54;14.10;78.70
80540;DHT22;69869;48.036;15.780;2024-03-02T11:50:35;14.10;78.70
80540;DHT22;69869;48.036;15.780;2024-03-02T11:53:05;14.10;78.70
80540;DHT22;69869;48.036;15.780;2024-03-02T11:55:34;14.10;78.70
80540;DHT22;69869;48.036;15.780;2024-03-02T11:58:02;14.10;78.70
80540;DHT22;69869;48.036;15.780;2024-03-02T12:00:28;14.20;78.80
80540;DHT22;69869;48.036;15.780;2024-03-02T12:03:04;14.10;78.80
80540;DHT22;69869;48.036;15.780;2024-03-02T12:05:30;14.10;78.70
80540;DHT22;69869;48.036;15.780;2024-03-02T12:08:02;14.10;78.80
80540;DHT22;69869;48.036;15.780;2024-03-02T12:10:28;14.10;78.80
80540;DHT22;69869;48.036;15.780;2024-03-02T12:12:57;14.10;78.80
80540;DHT22;69869;48.036;15.780;2024-03-02T12:15:28;14.10;78.80
80540;DHT22;69869;48.036;15.780;2024-03-02T12:17:58;14.10;78.80
80540;DHT22;69869;48.036;15.780;2024-03-02T12:20:26;14.10;78.90
80540;DHT22;69869;48.036;15.780;2024-03-02T12:22:57;14.10;78.80
80540;DHT22;69869;48.036;15.780;2024-03-02T12:25:24;14.20;78.90
80540;DHT22;69869;48.036;15.780;2024-03-02T12:27:55;14.10;78.80
80540;DHT22;69869;48.036;15.780;2024-03-02T12:30:22;14.10;78.80
80540;DHT22;69869;48.036;15.780;2024-03-02T12:32:48;14.20;78.90
80540;DHT22;69869;48.036;15.780;2024-03-02T12:35:15;14.10;78.80
80540;DHT22;69869;48.036;15.780;2024-03-02T12:37:58;14.10;78.90
80540;DHT22;69869;48.036;15.780;2024-03-02T12:40:24;14.10;78.90
80540;DHT22;69869;48.036;15.780;2024-03-02T12:42:50;14.10;78.90
80540;DHT22;69869;48.036;15.780;2024-03-02T12:45:16;14.10;78.80
80540;DHT22;69869;48.036;15.780;2024-03-02T12:47:49;14.20;79.00
80540;DHT22;69869;48.036;15.780;2024-03-02T12:50:15;14.10;78.90
80540;DHT22;69869;48.036;15.780;2024-03-02T12:52:40;14.10;78.90
80540;DHT22;69869;48.036;15.780;2024-03-02T12:55:06;14.20;78.90
80540;DHT22;69869;48.036;15.780;2024-03-02T12:57:33;14.10;78.90
80540;DHT22;69869;48.036;15.780;2024-03-02T12:59:59;14.20;79.00
80540;DHT22;69869;48.036;15.780;2024-03-02T13:02:29;14.10;78.90
80540;DHT22;69869;48.036;15.780;2024-03-02T13:04:55;14.20;79.00
80540;DHT22;69869;48.036;15.780;2024-03-02T13:07:21;14.10;78.90
80540;DHT22;69869;48.036;15.780;2024-03-02T13:09:50;14.20;79.10
80540;DHT22;69869;48.036;15.780;2024-03-02T13:12:17;14.10;79.00
80540;DHT22;69869;48.036;15.780;2024-03-02T13:14:43;14.10;79.00
80540;DHT22;69869;48.036;15.780;2024-03-02T13:17:09;14.20;79.10
80540;DHT22;69869;48.036;15.780;2024-03-02T13:19:35;14.20;79.10
80540;DHT22;69869;48.036;15.780;2024-03-02T13:22:01;14.10;79.10
80540;DHT22;69869;48.036;15.780;2024-03-02T13:24:30;14.10;79.10
80540;DHT22;69869;48.036;15.780;2024-03-02T13:26:56;14.10;79.10
80540;DHT22;69869;48.036;15.780;2024-03-02T13:29:23;14.10;79.10
80540;DHT22;69869;48.036;15.780;2024-03-02T13:31:49;14.20;79.20
80540;DHT22;69869;48.036;15.780;2024-03-02T13:34:15;14.10;79.00
80540;DHT22;69869;48.036;15.780;2024-03-02T13:36:41;14.10;79.10
80540;DHT22;69869;48.036;15.780;2024-03-02T13:39:07;14.10;79.10
80540;DHT22;69869;48.036;15.780;2024-03-02T13:41:36;14.20;79.20
80540;DHT22;69869;48.036;15.780;2024-03-02T13:44:02;14.10;79.20
80540;DHT22;69869;48.036;15.780;2024-03-02T13:46:28;14.10;79.20
80540;DHT22;69869;48.036;15.780;2024-03-02T13:48:54;14.20;79.30
80540;DHT22;69869;48.036;15.780;2024-03-02T13:51:21;14.10;79.20
80540;DHT22;69869;48.036;15.780;2024-03-02T13:53:47;14.10;79.20
80540;DHT22;69869;48.036;15.780;2024-03-02T13:56:12;14.10;79.20
80540;DHT22;69869;48.036;15.780;2024-03-02T13:58:38;14.10;79.10
80540;DHT22;69869;48.036;15.780;2024-03-02T14:01:05;14.10;79.10
80540;DHT22;69869;48.036;15.780;2024-03-02T14:03:30;14.10;79.10
80540;DHT22;69869;48.036;15.780;2024-03-02T14:05:56;14.10;79.20
80540;DHT22;69869;48.036;15.780;2024-03-02T14:08:22;14.20;79.30
80540;DHT22;69869;48.036;15.780;2024-03-02T14:10:51;14.10;79.20
80540;DHT22;69869;48.036;15.780;2024-03-02T14:13:16;14.20;79.40
80540;DHT22;69869;48.036;15.780;2024-03-02T14:15:42;14.20;79.40
80540;DHT22;69869;48.036;15.780;2024-03-02T14:18:08;14.10;79.30
80540;DHT22;69869;48.036;15.780;2024-03-02T14:20:36;14.10;79.20
80540;DHT22;69869;48.036;15.780;2024-03-02T14:23:03;14.10;79.30
80540;DHT22;69869;48.036;15.780;2024-03-02T14:25:29;14.20;79.30
80540;DHT22;69869;48.036;15.780;2024-03-02T14:27:58;14.10;79.30
80540;DHT22;69869;48.036;15.780;2024-03-02T14:30:24;14.10;79.30
80540;DHT22;69869;48.036;15.780;2024-03-02T14:32:50;14.20;79.30
80540;DHT22;69869;48.036;15.780;2024-03-02T14:35:16;14.10;79.30
80540;DHT22;69869;48.036;15.780;2024-03-02T14:37:42;14.10;79.20
80540;DHT22;69869;48.036;15.780;2024-03-02T14:40:08;14.20;79.40
80540;DHT22;69869;48.036;15.780;2024-03-02T14:42:35;14.10;79.30
80540;DHT22;69869;48.036;15.780;2024-03-02T14:45:01;14.20;79.40
80540;DHT22;69869;48.036;15.780;2024-03-02T14:47:29;14.10;79.30
80540;DHT22;69869;48.036;15.780;2024-03-02T14:49:55;14.20;79.40
80540;DHT22;69869;48.036;15.780;2024-03-02T14:52:21;14.10;79.40
80540;DHT22;69869;48.036;15.780;2024-03-02T14:54:46;14.10;79.30
80540;DHT22;69869;48.036;15.780;2024-03-02T14:57:12;14.10;79.40
80540;DHT22;69869;48.036;15.780;2024-03-02T14:59:38;14.10;79.40
80540;DHT22;69869;48.036;15.780;2024-03-02T15:02:04;14.10;79.30
80540;DHT22;69869;48.036;15.780;2024-03-02T15:04:30;14.10;79.40
80540;DHT22;69869;48.036;15.780;2024-03-02T15:06:56;14.20;79.50
80540;DHT22;69869;48.036;15.780;2024-03-02T15:09:21;14.20;79.50
80540;DHT22;69869;48.036;15.780;2024-03-02T15:11:47;14.20;79.50
80540;DHT22;69869;48.036;15.780;2024-03-02T15:14:13;14.10;79.40
80540;DHT22;69869;48.036;15.780;2024-03-02T15:16:39;14.10;79.40
80540;DHT22;69869;48.036;15.780;2024-03-02T15:19:05;14.10;80.10
80540;DHT22;69869;48.036;15.780;2024-03-02T15:21:30;14.10;79.50
80540;DHT22;69869;48.036;15.780;2024-03-02T15:23:56;14.10;79.50